Winkler County Airport
KINK : now visible

Airfield :











YOU CAN JOIN US ON...

 
LOGIN :

Register | Disclaimer

   EN    FR    IT 

 









Legend :    VFR   Marginal VFR   IFR   Intensive IFR   Very Intensive IFR
Visi :
Ceiling :
>= 8 km
>= 3000ft
5 to 8 km
1000 to 3000 ft
1500m to 5 km
500 to 1000 ft
800 to 1500m
200 to 500 ft
< 800m
< 200 ft
Symbols :   Thunderstorms  Fog  Heavy snow  Heavy precipitations  Wind > 20 kt






- Airport Elevation : 2822 ft


KINK - Winkler County

CURRENT METAR :
  • 301553Z AUTO 14011KT 10SM CLR 29/17 A3018 RMK AO2 SLP170 T02940172

EXPIRED METARs :
  • 301453Z AUTO 14009KT 10SM CLR 27/17 A3017 RMK AO2 SLP168 T02720172 51011
  • 301353Z AUTO 14008KT 10SM CLR 26/17 A3016 RMK AO2 SLP164 T02560172

TAF KINK
Valid from the 30 at 12:00 until the 31 at 12:00 UTC


301130Z 3012/3112 12008KT P6SM FEW080 SCT250
KZFW FIR / North America



MET'MAP, your aeronautical weather chart ! - Copyright ORBIFLY December 2007 - Disclaimer

ORBIFLY MET'MAP TEAM :

Programming & Development : Alexandra Zaïnal
Concept & original design : Baudouin d'Aumeries
Assistance for programming : Marc-Olivier Méhu
Technical & hardware support : Manuel Goepfert

Contact : metmap@orbifly.com




SOURCES & CREDITS :

   NOAA       Earth
Advisory